Time;durP1;ratioP1;P1;durP2;ratioP2;P2;SDS_P1;SDS_P2;PMS_P1;PMS_P2;Temp;Humidity;BMP_temperature;BMP_pressure;BME280_temperature;BME280_humidity;BME280_pressure;Samples;Min_cycle;Max_cycle;Signal;HPM_P1;HPM_P2
2022/02/16 00:00:38;;;;;;;11.77;8.30;;;8.40;99.90;;;;;;5020227;28;20067;-82
2022/02/16 00:03:04;;;;;;;9.88;7.95;;;8.50;99.90;;;;;;5033309;28;20040;-82
2022/02/16 00:05:29;;;;;;;12.95;8.50;;;8.50;99.90;;;;;;5032278;28;20370;-82
2022/02/16 00:07:55;;;;;;;11.45;8.30;;;8.50;99.90;;;;;;5021484;28;20025;-82
2022/02/16 00:10:21;;;;;;;11.23;8.60;;;8.50;99.90;;;;;;5017272;28;20026;-82
2022/02/16 00:12:47;;;;;;;11.13;7.72;;;8.50;99.90;;;;;;5032353;28;20033;-82
2022/02/16 00:15:17;;;;;;;9.95;8.43;;;8.50;99.90;;;;;;5030825;28;20113;-82
2022/02/16 00:17:43;;;;;;;10.95;8.40;;;8.50;99.90;;;;;;5032646;28;20046;-82
2022/02/16 00:20:10;;;;;;;9.25;8.05;;;8.60;99.90;;;;;;5026361;28;20113;-82
2022/02/16 00:22:35;;;;;;;11.98;7.88;;;8.50;99.90;;;;;;5016759;28;20029;-81
2022/02/16 00:25:01;;;;;;;11.75;9.00;;;8.60;99.90;;;;;;5028178;28;20113;-82
2022/02/16 00:27:27;;;;;;;13.73;9.27;;;8.50;99.90;;;;;;5032389;28;20021;-82
2022/02/16 00:29:53;;;;;;;15.32;9.65;;;8.60;99.90;;;;;;5030518;28;20033;-81
2022/02/16 00:32:18;;;;;;;10.60;8.52;;;8.60;99.90;;;;;;5022140;28;20087;-81
2022/02/16 00:34:44;;;;;;;14.57;8.93;;;8.60;99.90;;;;;;5015601;28;20488;-82
2022/02/16 00:37:09;;;;;;;13.43;8.88;;;8.60;99.90;;;;;;5013155;28;20496;-81
2022/02/16 00:39:35;;;;;;;14.88;9.73;;;8.60;99.90;;;;;;5022226;28;20026;-79
2022/02/16 00:42:01;;;;;;;12.75;8.35;;;8.70;99.90;;;;;;5031703;28;20036;-81
2022/02/16 00:44:26;;;;;;;9.82;8.05;;;8.70;99.90;;;;;;5032136;28;20022;-82
2022/02/16 00:46:52;;;;;;;11.20;8.57;;;8.70;99.90;;;;;;5030891;28;20885;-81
2022/02/16 00:49:18;;;;;;;10.27;7.57;;;8.80;99.90;;;;;;5032311;28;20076;-81
2022/02/16 00:51:44;;;;;;;14.98;8.68;;;8.80;99.90;;;;;;5030909;28;20042;-82
2022/02/16 00:54:10;;;;;;;9.63;7.55;;;8.80;99.90;;;;;;5031478;28;20031;-81
2022/02/16 00:56:37;;;;;;;12.23;8.00;;;8.80;99.90;;;;;;5024606;28;20104;-81
2022/02/16 00:59:03;;;;;;;13.25;7.05;;;8.80;99.90;;;;;;5012346;28;20018;-81
2022/02/16 01:01:28;;;;;;;10.52;7.53;;;8.80;99.90;;;;;;5028658;28;20028;-81
2022/02/16 01:03:54;;;;;;;11.05;7.63;;;8.80;99.90;;;;;;5031599;28;20042;-81
2022/02/16 01:06:19;;;;;;;12.15;6.57;;;8.80;99.90;;;;;;5026380;28;20498;-81
2022/02/16 01:08:45;;;;;;;14.18;8.02;;;8.80;99.90;;;;;;5030898;28;20039;-80
2022/02/16 01:11:11;;;;;;;10.02;7.78;;;8.80;99.90;;;;;;5031658;28;20101;-82
2022/02/16 01:13:36;;;;;;;14.75;6.93;;;8.80;99.90;;;;;;5031581;28;20040;-81
2022/02/16 01:16:02;;;;;;;11.50;6.93;;;8.80;99.90;;;;;;5030053;28;20053;-81
2022/02/16 01:18:28;;;;;;;10.00;7.15;;;8.80;99.90;;;;;;5031482;28;20029;-81
2022/02/16 01:20:53;;;;;;;10.32;7.20;;;8.80;99.90;;;;;;5023397;28;20037;-80
2022/02/16 01:23:19;;;;;;;9.52;6.72;;;8.80;99.90;;;;;;5030874;28;20038;-81
2022/02/16 01:25:45;;;;;;;9.90;6.28;;;8.80;99.90;;;;;;5026310;28;20105;-82
2022/02/16 01:28:10;;;;;;;9.32;7.22;;;8.80;99.90;;;;;;5012441;28;20037;-81
2022/02/16 01:30:36;;;;;;;11.00;6.93;;;8.80;99.90;;;;;;5022273;28;20033;-81
2022/02/16 01:33:01;;;;;;;10.75;7.40;;;8.80;99.90;;;;;;5018412;28;21656;-81
2022/02/16 01:35:27;;;;;;;11.30;7.20;;;8.80;99.90;;;;;;5031200;28;20044;-81
2022/02/16 01:37:53;;;;;;;12.68;7.63;;;8.80;99.90;;;;;;5019574;28;20366;-81
2022/02/16 01:40:19;;;;;;;11.15;7.00;;;8.90;99.90;;;;;;5020464;28;20721;-81
2022/02/16 01:42:45;;;;;;;10.10;7.38;;;8.90;99.90;;;;;;5035405;28;20037;-81
2022/02/16 01:45:10;;;;;;;11.18;7.60;;;8.90;99.90;;;;;;5025579;28;20429;-81
2022/02/16 01:47:40;;;;;;;8.85;7.32;;;8.90;99.90;;;;;;5034549;28;20029;-80
2022/02/16 01:50:07;;;;;;;9.30;6.88;;;8.90;99.90;;;;;;5022196;28;20018;-81
2022/02/16 01:52:33;;;;;;;10.98;7.55;;;8.90;99.90;;;;;;5027656;28;20185;-80
2022/02/16 01:54:58;;;;;;;11.98;7.00;;;8.90;99.90;;;;;;5015055;28;20113;-81
2022/02/16 01:57:25;;;;;;;10.35;8.07;;;9.00;99.90;;;;;;5021360;28;20041;-81
2022/02/16 01:59:52;;;;;;;10.30;7.22;;;9.00;99.90;;;;;;5025776;28;20030;-81
2022/02/16 02:02:18;;;;;;;9.55;6.80;;;9.00;99.90;;;;;;5034538;28;20029;-80
2022/02/16 02:04:43;;;;;;;11.82;6.63;;;9.00;99.90;;;;;;5030530;28;20041;-81
2022/02/16 02:07:09;;;;;;;7.95;6.03;;;9.00;99.90;;;;;;5024047;28;20029;-81
2022/02/16 02:09:35;;;;;;;8.68;6.07;;;9.00;99.90;;;;;;5029755;28;20065;-81
2022/02/16 02:12:01;;;;;;;9.70;6.40;;;9.00;99.90;;;;;;5033101;28;20033;-81
2022/02/16 02:14:27;;;;;;;6.90;5.22;;;9.00;99.90;;;;;;5033218;28;20033;-80
2022/02/16 02:16:52;;;;;;;7.47;5.85;;;9.00;99.90;;;;;;5016948;28;20054;-81
2022/02/16 02:19:18;;;;;;;8.60;5.22;;;9.00;99.90;;;;;;5034530;28;20037;-80
2022/02/16 02:21:48;;;;;;;8.18;5.28;;;9.00;99.90;;;;;;5029288;28;20021;-80
2022/02/16 02:24:13;;;;;;;9.90;6.00;;;9.00;99.90;;;;;;5025875;28;20045;-81
2022/02/16 02:26:39;;;;;;;8.30;6.07;;;9.00;99.90;;;;;;5024837;28;20022;-82
2022/02/16 02:29:05;;;;;;;6.97;5.10;;;9.00;99.90;;;;;;5029178;28;20036;-81
2022/02/16 02:31:33;;;;;;;7.28;5.05;;;9.00;99.90;;;;;;5032409;28;20017;-81
2022/02/16 02:34:00;;;;;;;8.30;5.75;;;9.00;99.90;;;;;;5016063;28;20030;-81
2022/02/16 02:36:25;;;;;;;7.88;5.88;;;9.00;99.90;;;;;;5029627;28;20124;-81
2022/02/16 02:38:52;;;;;;;9.75;6.18;;;9.00;99.90;;;;;;5029712;28;20517;-81
2022/02/16 02:41:17;;;;;;;6.63;5.25;;;9.00;99.90;;;;;;5028917;28;20014;-82
2022/02/16 02:43:45;;;;;;;7.70;5.50;;;9.00;99.90;;;;;;5014490;28;20037;-81
2022/02/16 02:46:11;;;;;;;6.57;4.95;;;9.00;99.90;;;;;;5027741;28;20093;-81
2022/02/16 02:48:37;;;;;;;8.20;5.03;;;9.00;99.90;;;;;;5033489;28;20067;-81
2022/02/16 02:51:02;;;;;;;7.50;4.93;;;9.00;99.90;;;;;;5031719;28;20075;-81
2022/02/16 02:53:28;;;;;;;6.45;5.28;;;9.00;99.90;;;;;;5034279;28;20045;-81
2022/02/16 02:55:53;;;;;;;7.78;5.47;;;9.10;99.90;;;;;;5023492;28;20092;-81
2022/02/16 02:58:19;;;;;;;7.25;4.45;;;9.00;99.90;;;;;;5024923;28;20025;-80
2022/02/16 03:00:45;;;;;;;7.68;5.28;;;9.00;99.90;;;;;;5030695;28;20437;-81
2022/02/16 03:03:11;;;;;;;5.65;4.72;;;9.00;99.90;;;;;;5020591;28;20029;-80
2022/02/16 03:05:36;;;;;;;6.85;4.40;;;9.10;99.90;;;;;;5017095;28;20474;-81
2022/02/16 03:08:02;;;;;;;5.95;4.70;;;9.00;99.90;;;;;;5021840;28;20017;-80
2022/02/16 03:10:29;;;;;;;9.20;4.82;;;9.00;99.90;;;;;;5019178;28;20035;-81
2022/02/16 03:12:54;;;;;;;9.80;4.40;;;9.00;99.90;;;;;;5013862;28;20088;-80
2022/02/16 03:15:20;;;;;;;6.78;4.50;;;9.10;99.90;;;;;;5014030;28;20026;-80
2022/02/16 03:17:46;;;;;;;5.40;3.88;;;9.10;99.90;;;;;;5023104;28;20067;-80
2022/02/16 03:20:11;;;;;;;6.13;4.13;;;9.10;99.90;;;;;;5014967;28;20080;-80
2022/02/16 03:22:37;;;;;;;7.22;3.70;;;9.10;99.90;;;;;;5031521;28;20491;-81
2022/02/16 03:25:04;;;;;;;5.18;3.95;;;9.10;99.90;;;;;;5033028;28;20029;-81
2022/02/16 03:27:30;;;;;;;7.15;3.65;;;9.10;99.90;;;;;;5033605;28;20374;-81
2022/02/16 03:29:56;;;;;;;6.32;3.65;;;9.10;99.90;;;;;;5022411;28;20041;-80
2022/02/16 03:32:22;;;;;;;4.70;3.00;;;9.10;99.90;;;;;;5027575;28;20041;-81
2022/02/16 03:34:48;;;;;;;4.05;3.22;;;9.10;99.90;;;;;;5016514;28;20034;-81
2022/02/16 03:37:14;;;;;;;4.72;2.58;;;9.10;99.90;;;;;;5032188;28;20104;-81
2022/02/16 03:39:40;;;;;;;6.95;3.38;;;9.10;99.90;;;;;;5020610;28;20041;-81
2022/02/16 03:42:07;;;;;;;5.65;2.75;;;9.10;99.90;;;;;;5026225;28;20124;-80
2022/02/16 03:44:32;;;;;;;5.00;2.80;;;9.10;99.90;;;;;;5029922;28;20018;-81
2022/02/16 03:46:58;;;;;;;3.60;2.40;;;9.10;99.90;;;;;;5023595;28;20048;-81
2022/02/16 03:49:25;;;;;;;5.65;2.80;;;9.00;99.90;;;;;;5032902;28;20029;-81
2022/02/16 03:51:51;;;;;;;5.22;3.22;;;9.10;99.90;;;;;;5031176;28;20030;-80
2022/02/16 03:54:16;;;;;;;5.63;2.55;;;9.00;99.90;;;;;;5032765;28;20489;-81
2022/02/16 03:56:42;;;;;;;3.42;2.55;;;9.00;99.90;;;;;;5031876;28;20112;-81
2022/02/16 03:59:08;;;;;;;5.35;2.88;;;9.00;99.90;;;;;;5029908;28;20032;-81
2022/02/16 04:01:34;;;;;;;4.55;2.97;;;9.00;99.90;;;;;;5028944;28;20025;-81
2022/02/16 04:04:00;;;;;;;5.60;3.13;;;9.00;99.90;;;;;;5031984;28;20103;-81
2022/02/16 04:06:25;;;;;;;4.13;3.00;;;9.00;99.90;;;;;;5032126;28;20033;-82
2022/02/16 04:08:51;;;;;;;3.30;2.58;;;9.00;99.90;;;;;;5027729;28;20552;-81
2022/02/16 04:11:19;;;;;;;4.13;3.30;;;9.00;99.90;;;;;;5030256;28;20060;-81
2022/02/16 04:13:45;;;;;;;4.75;2.58;;;9.00;99.90;;;;;;5018612;28;20064;-81
2022/02/16 04:16:10;;;;;;;3.95;2.72;;;9.00;99.90;;;;;;5021733;28;20042;-81
2022/02/16 04:18:36;;;;;;;3.70;2.90;;;8.90;99.90;;;;;;5027265;28;20064;-82
2022/02/16 04:21:02;;;;;;;3.63;2.55;;;9.00;99.90;;;;;;5031412;28;20018;-81
2022/02/16 04:23:28;;;;;;;4.82;3.45;;;9.00;99.90;;;;;;5032357;28;20032;-81
2022/02/16 04:25:53;;;;;;;4.75;3.28;;;9.00;99.90;;;;;;5028699;28;20026;-81
2022/02/16 04:28:21;;;;;;;6.03;3.38;;;8.90;99.90;;;;;;5012439;28;20152;-82
2022/02/16 04:30:47;;;;;;;5.18;3.40;;;9.00;99.90;;;;;;5020330;28;20072;-83
2022/02/16 04:33:13;;;;;;;4.57;3.40;;;9.00;99.90;;;;;;5015042;28;20038;-82
2022/02/16 04:35:38;;;;;;;6.38;3.75;;;9.00;99.90;;;;;;5027007;28;20029;-82
2022/02/16 04:38:04;;;;;;;6.55;3.85;;;9.00;99.90;;;;;;5025736;28;20692;-84
2022/02/16 04:40:30;;;;;;;5.18;3.58;;;9.00;99.90;;;;;;5022045;28;20445;-82
2022/02/16 04:42:55;;;;;;;6.45;3.72;;;9.00;99.90;;;;;;5027918;28;20486;-82
2022/02/16 04:45:21;;;;;;;4.97;3.60;;;9.10;99.90;;;;;;5018367;28;20068;-82
2022/02/16 04:47:46;;;;;;;5.95;3.78;;;9.10;99.90;;;;;;5022118;28;20083;-82
2022/02/16 04:50:12;;;;;;;7.78;3.90;;;9.00;99.90;;;;;;5025438;28;20485;-82
2022/02/16 04:52:38;;;;;;;6.22;4.40;;;9.10;99.90;;;;;;5030743;28;20042;-80
2022/02/16 04:55:06;;;;;;;8.15;4.28;;;9.10;99.90;;;;;;5027801;28;20466;-80
2022/02/16 04:57:31;;;;;;;5.82;3.58;;;9.10;99.90;;;;;;5031456;28;20489;-79
2022/02/16 04:59:59;;;;;;;5.95;3.40;;;9.10;99.90;;;;;;5025576;28;20021;-80
2022/02/16 05:02:26;;;;;;;4.38;3.45;;;9.10;99.90;;;;;;5012953;28;20398;-79
2022/02/16 05:04:54;;;;;;;4.75;3.35;;;9.20;99.90;;;;;;5014293;28;20029;-79
2022/02/16 05:07:22;;;;;;;4.97;2.97;;;9.20;99.90;;;;;;5030979;28;20025;-82
2022/02/16 05:09:47;;;;;;;4.75;2.97;;;9.20;99.90;;;;;;5029818;28;20013;-80
2022/02/16 05:12:13;;;;;;;3.55;2.95;;;9.20;99.90;;;;;;5031585;28;20500;-80
2022/02/16 05:14:39;;;;;;;5.88;3.03;;;9.20;99.90;;;;;;5029276;28;20040;-79
2022/02/16 05:17:04;;;;;;;6.32;3.40;;;9.20;99.90;;;;;;5033729;28;20048;-79
2022/02/16 05:19:30;;;;;;;3.85;3.15;;;9.30;99.90;;;;;;5036006;28;20040;-80
2022/02/16 05:21:56;;;;;;;5.20;3.15;;;9.30;99.90;;;;;;5033570;28;20037;-80
2022/02/16 05:24:22;;;;;;;3.35;2.47;;;9.30;99.90;;;;;;5034086;28;20033;-81
2022/02/16 05:26:48;;;;;;;3.60;2.75;;;9.30;99.90;;;;;;5030653;28;20033;-80
2022/02/16 05:29:14;;;;;;;5.15;2.58;;;9.30;99.90;;;;;;5025708;28;20018;-82
2022/02/16 05:31:39;;;;;;;3.13;2.50;;;9.20;99.90;;;;;;5026049;28;20053;-82
2022/02/16 05:34:05;;;;;;;4.65;2.72;;;9.20;99.90;;;;;;5020840;28;20030;-82
2022/02/16 05:36:31;;;;;;;5.07;2.40;;;9.20;99.90;;;;;;5022230;28;20022;-82
2022/02/16 05:38:56;;;;;;;3.10;2.30;;;9.20;99.90;;;;;;5020331;28;20397;-82
2022/02/16 05:41:22;;;;;;;4.28;2.10;;;9.20;99.90;;;;;;5026660;28;20033;-80
2022/02/16 05:43:47;;;;;;;5.25;2.00;;;9.20;99.90;;;;;;5017137;28;20022;-81
2022/02/16 05:46:13;;;;;;;2.80;2.15;;;9.20;99.90;;;;;;5029044;28;20038;-81
2022/02/16 05:48:39;;;;;;;4.78;2.40;;;9.20;99.90;;;;;;5033825;28;20021;-81
2022/02/16 05:51:04;;;;;;;2.65;1.95;;;9.20;99.90;;;;;;5026736;28;20075;-82
2022/02/16 05:53:30;;;;;;;4.13;2.47;;;9.20;99.90;;;;;;5035129;28;20099;-82
2022/02/16 05:55:56;;;;;;;2.75;1.80;;;9.20;99.90;;;;;;5030055;28;20018;-81
2022/02/16 05:58:21;;;;;;;4.43;2.22;;;9.20;99.90;;;;;;5024836;28;20017;-81
2022/02/16 06:00:47;;;;;;;3.20;2.15;;;9.20;99.90;;;;;;5034014;28;20037;-82
2022/02/16 06:03:12;;;;;;;2.65;2.17;;;9.20;99.90;;;;;;5031548;28;20044;-82
2022/02/16 06:05:38;;;;;;;5.05;2.30;;;9.30;99.90;;;;;;5021272;28;20405;-81
2022/02/16 06:08:04;;;;;;;2.80;2.00;;;9.30;99.90;;;;;;5021156;28;20065;-81
2022/02/16 06:10:30;;;;;;;2.60;2.10;;;9.30;99.90;;;;;;5016642;28;20506;-82
2022/02/16 06:12:58;;;;;;;3.10;1.90;;;9.30;99.90;;;;;;5027382;28;20056;-81
2022/02/16 06:15:24;;;;;;;2.25;1.60;;;9.30;99.90;;;;;;5015197;28;20022;-81
2022/02/16 06:17:49;;;;;;;3.65;1.65;;;9.40;99.90;;;;;;5015226;28;20034;-81
2022/02/16 06:20:15;;;;;;;2.33;2.13;;;9.40;99.90;;;;;;5017558;28;20381;-81
2022/02/16 06:22:41;;;;;;;2.67;1.92;;;9.40;99.90;;;;;;5026696;28;20434;-81
2022/02/16 06:25:07;;;;;;;2.40;1.90;;;9.40;99.90;;;;;;5026952;28;20018;-81
2022/02/16 06:27:34;;;;;;;2.47;1.58;;;9.50;99.90;;;;;;5026934;28;20037;-81
2022/02/16 06:30:01;;;;;;;3.00;1.80;;;9.40;99.90;;;;;;5022001;28;20021;-82
2022/02/16 06:32:27;;;;;;;2.38;1.80;;;9.50;99.90;;;;;;5017513;28;20030;-82
2022/02/16 06:34:52;;;;;;;2.88;1.60;;;9.50;99.90;;;;;;5033563;28;20040;-82
2022/02/16 06:37:18;;;;;;;2.35;1.65;;;9.50;99.90;;;;;;5028899;28;20034;-81
2022/02/16 06:39:44;;;;;;;2.35;1.30;;;9.50;99.90;;;;;;5025683;28;20034;-82
2022/02/16 06:42:09;;;;;;;2.30;1.60;;;9.50;99.90;;;;;;5025593;28;20092;-81
2022/02/16 06:44:35;;;;;;;2.13;1.50;;;9.50;99.90;;;;;;5028036;28;20041;-82
2022/02/16 06:47:00;;;;;;;2.47;1.40;;;9.50;99.90;;;;;;5028219;28;20025;-83
2022/02/16 06:49:26;;;;;;;1.85;1.45;;;9.50;99.90;;;;;;5033882;28;20059;-82
2022/02/16 06:51:52;;;;;;;2.10;1.40;;;9.50;99.90;;;;;;5030933;28;20515;-82
2022/02/16 06:54:18;;;;;;;2.28;1.40;;;9.50;99.90;;;;;;5034499;28;20021;-77
2022/02/16 06:56:43;;;;;;;2.40;1.50;;;9.60;99.90;;;;;;5031108;28;20026;-79
2022/02/16 06:59:09;;;;;;;2.00;1.42;;;9.60;99.90;;;;;;5023841;28;20025;-79
2022/02/16 07:01:35;;;;;;;2.75;1.35;;;9.60;99.90;;;;;;5021030;28;20499;-80
2022/02/16 07:04:00;;;;;;;3.20;1.20;;;9.60;99.90;;;;;;5033469;28;20025;-79
2022/02/16 07:06:26;;;;;;;2.00;1.17;;;9.60;99.90;;;;;;5026285;28;20033;-80
2022/02/16 07:08:51;;;;;;;2.53;1.20;;;9.60;99.90;;;;;;5020926;28;20049;-79
2022/02/16 07:11:17;;;;;;;2.60;1.17;;;9.70;99.90;;;;;;5029248;28;20040;-80
2022/02/16 07:13:42;;;;;;;3.03;1.02;;;9.70;99.90;;;;;;5032768;28;20087;-80
2022/02/16 07:16:08;;;;;;;3.22;1.10;;;9.70;99.90;;;;;;5035182;28;20099;-81
2022/02/16 07:18:35;;;;;;;1.75;1.00;;;9.70;99.90;;;;;;5032416;28;20056;-81
2022/02/16 07:21:00;;;;;;;1.52;1.00;;;9.70;99.90;;;;;;5020189;28;20485;-81
2022/02/16 07:23:26;;;;;;;1.38;0.73;;;9.70;99.90;;;;;;5032375;28;20060;-82
2022/02/16 07:25:51;;;;;;;1.10;0.63;;;9.80;99.90;;;;;;5025928;28;20029;-81
2022/02/16 07:28:17;;;;;;;1.88;1.10;;;9.80;99.90;;;;;;5032263;28;20026;-80
2022/02/16 07:30:45;;;;;;;1.40;0.80;;;9.80;99.90;;;;;;5027816;28;20444;-80
2022/02/16 07:33:12;;;;;;;1.85;0.95;;;9.90;99.90;;;;;;5033531;28;20037;-80
2022/02/16 07:35:38;;;;;;;1.65;0.98;;;9.80;99.90;;;;;;5033392;28;20079;-80
2022/02/16 07:38:03;;;;;;;1.60;0.90;;;9.90;99.90;;;;;;5034266;28;20108;-80
2022/02/16 07:40:29;;;;;;;2.15;1.30;;;9.90;99.90;;;;;;5034618;28;20108;-81
2022/02/16 07:42:54;;;;;;;1.60;1.05;;;9.90;99.90;;;;;;5034707;28;20037;-82
2022/02/16 07:45:20;;;;;;;2.58;1.20;;;9.90;99.90;;;;;;5034073;28;20377;-80
2022/02/16 07:47:46;;;;;;;1.83;1.05;;;9.90;99.90;;;;;;5031172;28;20478;-81
2022/02/16 07:50:12;;;;;;;2.45;1.20;;;10.00;99.90;;;;;;5025627;28;20075;-82
2022/02/16 07:52:38;;;;;;;1.80;1.20;;;10.00;99.90;;;;;;5025562;28;20044;-81
2022/02/16 07:55:04;;;;;;;4.82;1.45;;;10.00;99.90;;;;;;5020530;28;20025;-81
2022/02/16 07:57:30;;;;;;;2.25;1.52;;;10.00;99.90;;;;;;5031210;28;20083;-81
2022/02/16 07:59:55;;;;;;;2.22;1.58;;;10.10;99.90;;;;;;5030528;28;20022;-81
2022/02/16 08:02:21;;;;;;;3.60;1.55;;;10.10;99.90;;;;;;5027623;28;20411;-82
2022/02/16 08:04:46;;;;;;;2.13;1.30;;;10.10;99.90;;;;;;5032129;28;20026;-81
2022/02/16 08:07:12;;;;;;;2.92;1.58;;;10.20;99.90;;;;;;5032350;28;20029;-81
2022/02/16 08:09:37;;;;;;;2.28;1.77;;;10.20;99.90;;;;;;5031047;28;20049;-81
2022/02/16 08:12:03;;;;;;;3.92;1.58;;;10.30;99.90;;;;;;5032413;28;20076;-81
2022/02/16 08:14:33;;;;;;;3.10;2.22;;;10.30;99.90;;;;;;5032689;28;20080;-82
2022/02/16 08:17:00;;;;;;;3.45;2.40;;;10.30;99.90;;;;;;5030510;28;20485;-81
2022/02/16 08:19:26;;;;;;;2.92;1.92;;;10.30;99.90;;;;;;5029820;28;20096;-81
2022/02/16 08:21:55;;;;;;;4.80;2.17;;;10.30;99.90;;;;;;5030843;28;20060;-81
2022/02/16 08:24:21;;;;;;;2.70;2.05;;;10.40;99.90;;;;;;5030113;28;20075;-81
2022/02/16 08:26:47;;;;;;;2.53;1.90;;;10.40;99.90;;;;;;5029983;28;20057;-81
2022/02/16 08:29:14;;;;;;;3.78;3.10;;;10.40;99.90;;;;;;5023195;28;20110;-81
2022/02/16 08:31:41;;;;;;;4.65;3.15;;;10.40;99.90;;;;;;5030017;28;20044;-81
2022/02/16 08:34:06;;;;;;;5.65;3.45;;;10.40;99.90;;;;;;5021080;28;20395;-81
2022/02/16 08:36:32;;;;;;;4.97;3.28;;;10.40;99.90;;;;;;5013767;28;20026;-81
2022/02/16 08:38:57;;;;;;;3.67;3.05;;;10.40;99.90;;;;;;5027440;28;20501;-79
2022/02/16 08:41:23;;;;;;;7.10;3.25;;;10.40;99.90;;;;;;5025121;28;20444;-80
2022/02/16 08:43:48;;;;;;;4.65;3.72;;;10.40;99.90;;;;;;5027821;28;20108;-80
2022/02/16 08:46:14;;;;;;;7.15;3.63;;;10.50;99.90;;;;;;5019641;28;20081;-79
2022/02/16 08:48:40;;;;;;;4.57;3.65;;;10.50;99.90;;;;;;5026512;28;20196;-80
2022/02/16 08:51:05;;;;;;;4.15;3.33;;;10.50;99.90;;;;;;5028397;28;20557;-80
2022/02/16 08:53:31;;;;;;;4.53;3.30;;;10.50;99.90;;;;;;5033142;28;20124;-80
2022/02/16 08:55:58;;;;;;;6.43;3.30;;;10.60;99.90;;;;;;5033691;28;20522;-80
2022/02/16 08:58:24;;;;;;;4.70;3.50;;;10.60;99.90;;;;;;5028102;28;20050;-81
2022/02/16 09:00:50;;;;;;;4.45;3.47;;;10.60;99.90;;;;;;5028546;28;20108;-81
2022/02/16 09:03:16;;;;;;;5.72;3.80;;;10.60;99.90;;;;;;5029674;28;20034;-81
2022/02/16 09:05:42;;;;;;;4.35;3.38;;;10.70;99.90;;;;;;5028706;28;20061;-81
2022/02/16 09:08:08;;;;;;;4.95;4.05;;;10.70;99.90;;;;;;5030650;28;20091;-80
2022/02/16 09:10:34;;;;;;;4.72;3.47;;;10.70;99.90;;;;;;5030745;28;20033;-80
2022/02/16 09:12:59;;;;;;;5.03;3.53;;;10.70;99.90;;;;;;5030544;28;20045;-80
2022/02/16 09:15:26;;;;;;;4.97;3.90;;;10.70;99.90;;;;;;5029971;28;20034;-78
2022/02/16 09:17:55;;;;;;;5.63;3.83;;;10.70;99.90;;;;;;5029960;28;20041;-81
2022/02/16 09:20:22;;;;;;;5.22;4.00;;;10.80;99.90;;;;;;5023878;28;20029;-81
2022/02/16 09:22:47;;;;;;;4.88;3.53;;;10.80;99.90;;;;;;5028887;28;20042;-80
2022/02/16 09:25:13;;;;;;;4.65;3.65;;;10.80;99.90;;;;;;5030700;28;20394;-81
2022/02/16 09:27:38;;;;;;;5.35;3.15;;;10.80;99.90;;;;;;5030485;28;20029;-81
2022/02/16 09:30:05;;;;;;;4.45;3.55;;;10.80;99.90;;;;;;5030436;28;20540;-81
2022/02/16 09:32:31;;;;;;;4.43;3.35;;;10.80;99.90;;;;;;5019466;28;20037;-80
2022/02/16 09:34:57;;;;;;;5.10;4.40;;;10.80;99.90;;;;;;5030343;28;20535;-80
2022/02/16 09:37:23;;;;;;;7.50;4.53;;;10.90;99.90;;;;;;5022014;28;20088;-80
2022/02/16 09:39:50;;;;;;;7.32;4.68;;;10.90;99.90;;;;;;5028019;28;20026;-80
2022/02/16 09:42:16;;;;;;;5.07;4.38;;;11.00;99.90;;;;;;5026496;28;20486;-81
2022/02/16 09:45:02;;;;;;;6.47;5.00;;;11.00;99.90;;;;;;5032081;28;20120;-81
2022/02/16 09:47:33;;;;;;;6.20;4.72;;;11.10;99.90;;;;;;5032854;28;20034;-82
2022/02/16 09:50:00;;;;;;;6.03;4.28;;;11.10;99.90;;;;;;5033547;28;20056;-82
2022/02/16 09:52:27;;;;;;;5.75;4.97;;;11.20;99.90;;;;;;5025880;28;20037;-82
2022/02/16 09:54:53;;;;;;;5.75;4.22;;;11.20;99.90;;;;;;5028950;28;20168;-82
2022/02/16 09:57:19;;;;;;;7.35;4.57;;;11.30;99.90;;;;;;5021554;28;20046;-79
2022/02/16 09:59:45;;;;;;;7.32;5.15;;;11.40;99.90;;;;;;5031676;28;20018;-82
2022/02/16 10:02:13;;;;;;;5.15;4.55;;;11.40;99.90;;;;;;5032388;28;20365;-82
2022/02/16 10:04:42;;;;;;;5.90;4.50;;;11.50;99.90;;;;;;5034694;28;20053;-80
2022/02/16 10:07:36;;;;;;;6.65;4.32;;;11.50;99.90;;;;;;5030522;28;20025;-82
2022/02/16 10:10:18;;;;;;;6.18;5.00;;;11.50;99.90;;;;;;5033360;28;20535;-81
2022/02/16 10:12:47;;;;;;;8.60;4.93;;;11.60;99.90;;;;;;5035001;28;20029;-81
2022/02/16 10:15:21;;;;;;;6.25;4.85;;;11.60;99.90;;;;;;5021382;28;20060;-81
2022/02/16 10:17:47;;;;;;;10.63;5.03;;;11.70;99.90;;;;;;5028586;28;20045;-81
2022/02/16 10:20:16;;;;;;;11.45;5.07;;;11.70;99.90;;;;;;5033865;28;20032;-80
2022/02/16 10:22:49;;;;;;;8.25;5.10;;;11.80;99.90;;;;;;5032866;28;20040;-82
2022/02/16 10:25:19;;;;;;;;;;;11.80;99.90;;;;;;5029461;28;20370;-81
2022/02/16 10:28:16;;;;;;;9.70;5.13;;;11.90;99.90;;;;;;5034283;28;19963;-81
2022/02/16 10:31:05;;;;;;;8.65;5.00;;;11.90;99.90;;;;;;5026953;28;20029;-81
2022/02/16 10:33:42;;;;;;;9.13;4.97;;;12.10;99.90;;;;;;5025001;28;20481;-81
2022/02/16 10:36:18;;;;;;;9.18;4.35;;;12.10;99.90;;;;;;5025769;28;20029;-81
2022/02/16 10:38:55;;;;;;;7.55;4.13;;;12.10;99.90;;;;;;5028863;28;20482;-81
2022/02/16 10:41:24;;;;;;;6.38;4.70;;;12.20;99.90;;;;;;5025823;28;20064;-81
2022/02/16 10:43:50;;;;;;;10.57;4.65;;;12.20;99.90;;;;;;5015945;28;20042;-81
2022/02/16 10:46:24;;;;;;;7.55;4.63;;;12.20;99.90;;;;;;5031855;28;20109;-81
2022/02/16 10:49:17;;;;;;;7.00;3.83;;;12.20;99.90;;;;;;5027133;28;20092;-81
2022/02/16 10:51:44;;;;;;;7.82;4.00;;;12.20;99.90;;;;;;5030697;28;20029;-82
2022/02/16 10:54:18;;;;;;;8.20;4.10;;;12.30;99.90;;;;;;5033546;28;20053;-81
2022/02/16 10:56:48;;;;;;;7.75;3.72;;;12.30;99.90;;;;;;5031918;28;20036;-81
2022/02/16 10:59:14;;;;;;;7.78;3.70;;;12.30;99.90;;;;;;5017813;28;20029;-81
2022/02/16 11:01:41;;;;;;;7.05;3.75;;;12.30;99.90;;;;;;5028487;28;20026;-81
2022/02/16 11:04:08;;;;;;;5.93;2.92;;;12.40;99.90;;;;;;5015406;28;20021;-81
2022/02/16 11:06:41;;;;;;;8.07;3.15;;;12.40;99.90;;;;;;5032213;28;20087;-80
2022/02/16 11:09:08;;;;;;;;;;;12.50;99.90;;;;;;5026049;28;20022;-81
2022/02/16 11:11:33;;;;;;;9.18;2.58;;;12.40;99.90;;;;;;5024923;28;19916;-82
2022/02/16 11:14:03;;;;;;;9.63;2.55;;;12.50;99.90;;;;;;5025326;28;20037;-81
2022/02/16 11:16:29;;;;;;;9.10;2.50;;;12.60;99.90;;;;;;5031066;28;20050;-83
2022/02/16 11:18:59;;;;;;;5.30;2.20;;;12.60;99.90;;;;;;5033221;28;20393;-83
2022/02/16 11:21:28;;;;;;;8.02;2.80;;;12.60;99.90;;;;;;5033962;28;20022;-81
2022/02/16 11:23:56;;;;;;;10.23;2.40;;;12.60;99.90;;;;;;5033878;28;20362;-81
2022/02/16 11:26:36;;;;;;;6.32;2.60;;;12.60;99.90;;;;;;5026831;28;20029;-81
2022/02/16 11:29:11;;;;;;;7.75;2.65;;;12.60;99.90;;;;;;5025208;28;20033;-82
2022/02/16 11:31:38;;;;;;;10.23;3.88;;;12.60;99.90;;;;;;5029723;28;20561;-81
2022/02/16 11:34:16;;;;;;;11.93;4.35;;;12.60;99.90;;;;;;5017921;28;20555;-82
2022/02/16 11:36:59;;;;;;;8.18;4.25;;;12.60;99.90;;;;;;5025983;28;20109;-84
2022/02/16 11:39:50;;;;;;;11.60;6.07;;;12.60;99.90;;;;;;5014048;28;20109;-83
2022/02/16 11:42:22;;;;;;;13.85;6.10;;;12.70;99.90;;;;;;5029775;28;20052;-82
2022/02/16 11:44:50;;;;;;;12.30;5.32;;;12.70;99.90;;;;;;5033273;28;20017;-81
2022/02/16 11:47:37;;;;;;;9.77;5.40;;;12.70;99.90;;;;;;5028536;28;20022;-82
2022/02/16 11:50:17;;;;;;;9.52;4.65;;;12.70;99.90;;;;;;5015363;28;20026;-82
2022/02/16 11:52:55;;;;;;;14.63;5.35;;;12.70;99.90;;;;;;5011999;28;20125;-81
2022/02/16 11:55:28;;;;;;;13.65;5.50;;;12.70;99.90;;;;;;5015786;28;20033;-80
2022/02/16 11:58:02;;;;;;;9.40;5.38;;;12.80;99.90;;;;;;5030532;28;20391;-81
2022/02/16 12:00:30;;;;;;;10.63;4.50;;;12.80;99.90;;;;;;5017199;28;20159;-82
2022/02/16 12:03:07;;;;;;;9.60;4.43;;;12.80;99.90;;;;;;5021695;28;20551;-81
2022/02/16 12:05:53;;;;;;;10.15;4.25;;;12.80;99.90;;;;;;5023098;28;20026;-82
2022/02/16 12:08:23;;;;;;;10.63;4.07;;;12.80;99.90;;;;;;5030572;28;20034;-80
2022/02/16 12:10:57;;;;;;;9.25;3.88;;;12.90;99.90;;;;;;5021034;28;20075;-82
2022/02/16 12:13:35;;;;;;;8.30;3.90;;;12.80;99.90;;;;;;5031483;28;20036;-80
2022/02/16 12:16:04;;;;;;;12.68;3.65;;;12.90;99.90;;;;;;5033106;28;20457;-81
2022/02/16 12:18:30;;;;;;;13.18;4.05;;;12.90;99.90;;;;;;5032091;28;20033;-81
2022/02/16 12:20:57;;;;;;;11.27;4.07;;;12.90;99.90;;;;;;5031399;28;20025;-84
2022/02/16 12:23:23;;;;;;;11.23;4.63;;;12.90;99.90;;;;;;5014990;28;20029;-83
2022/02/16 12:26:12;;;;;;;9.07;4.25;;;12.90;99.90;;;;;;5021436;28;20019;-82
2022/02/16 12:28:56;;;;;;;9.15;4.30;;;12.90;99.90;;;;;;5012131;28;20122;-82
2022/02/16 12:31:24;;;;;;;8.07;3.80;;;12.90;99.90;;;;;;5013379;28;20072;-80
2022/02/16 12:33:56;;;;;;;12.20;4.03;;;12.90;99.90;;;;;;5012508;28;20405;-81
2022/02/16 12:36:23;;;;;;;15.13;3.72;;;12.90;99.90;;;;;;5013332;28;20053;-80
2022/02/16 12:38:49;;;;;;;13.98;4.68;;;12.90;99.90;;;;;;5011706;28;20026;-82
2022/02/16 12:41:19;;;;;;;10.63;3.65;;;12.90;99.90;;;;;;5015551;28;20028;-82
2022/02/16 12:44:12;;;;;;;11.98;3.70;;;13.00;99.90;;;;;;5017225;28;20477;-81
2022/02/16 12:46:48;;;;;;;10.90;3.58;;;13.00;99.90;;;;;;5021442;28;20125;-80
2022/02/16 12:49:15;;;;;;;11.15;3.65;;;13.00;99.90;;;;;;5019264;28;20477;-79
2022/02/16 12:51:45;;;;;;;9.70;2.75;;;13.00;99.90;;;;;;5026603;28;20091;-80